Flight Track Log - Related Links

Times and Time Zones

All times are in EDT time to prevent confusion due to time zone crossing. See the PDT4478 flight status page for this flight to view local times or setup timezone preferences in your user account.

Time Position Orientation Groundspeed Altitude Reporting Facility
EDT Latitude Longitude Course Direction KTS MPH feet Rate Location/Type
Fri 08:16:45 PM 35.2367 -80.9364 90° East 139 160 1,700  Level Atlanta Center
Fri 08:17:46 PM 35.2458 -80.8853 78° East 170 196 2,800 1,230 Climbing Atlanta Center
Fri 08:18:47 PM 35.2444 -80.8269 92° East 181 208 4,200 1,426 Climbing Atlanta Center
Fri 08:19:00 PM 35.3574 -80.7172 90° East  Level Estimated
Fri 08:19:48 PM 35.2425 -80.7558 92° East 190 219 5,700  Level Atlanta Center
Fri 08:20:00 PM 35.4052 -80.6397 90° East  Level Estimated
Fri 08:20:45 PM 35.2389 -80.6975 94° East 183 211 6,800  Level Atlanta Center
Fri 08:20:49 PM 35.2386 -80.6922 94° East 187 215 6,900 1,200 Climbing Atlanta Center
Fri 08:21:00 PM 35.4530 -80.5621 90° East  Level Estimated
Fri 08:22:00 PM 35.5007 -80.4844 90° East  Level Estimated
Fri 08:22:00 PM 35.2967 -80.6021 90° East  Level Estimated
Fri 08:22:45 PM 35.2328 -80.5578 90° East 212 244 9,200  Level Atlanta Center
Fri 08:23:45 PM 35.2289 -80.4919 94° East 200 230 10,400 968 Climbing Atlanta Center
Fri 08:25:20 PM 35.2236 -80.3797 93° East 205 236 11,700 846 Climbing Washington Center
Fri 08:26:21 PM 35.2203 -80.3031 93° East 210 242 12,600 885 Climbing Washington Center
Fri 08:27:22 PM 35.2186 -80.2369 92° East 215 247 13,500 893 Climbing Washington Center
Fri 08:28:22 PM 35.2156 -80.1556 93° East 220 253 14,400 814 Climbing Washington Center
Fri 08:29:20 PM 35.2142 -80.0842 91° East 220 253 15,100 712 Climbing Washington Center
Fri 08:30:20 PM 35.2092 -79.9950 94° East 225 259 15,800 645 Climbing Washington Center
Fri 08:31:21 PM 35.2361 -79.9378 60° Northeast 214 246 16,400 689 Climbing Washington Center
Fri 08:32:22 PM 35.2742 -79.8714 55° Northeast 209 241 17,200 744 Climbing Washington Center
Fri 08:33:22 PM 35.3053 -79.8169 55° Northeast 214 246 17,900 559 Climbing Washington Center
Fri 08:34:20 PM 35.3431 -79.7503 55° Northeast 214 246 18,300 504 Climbing Washington Center
Fri 08:35:21 PM 35.3764 -79.6908 55° Northeast 214 246 18,900 344 Climbing Washington Center
Fri 08:36:22 PM 35.4119 -79.6289 55° Northeast 214 246 19,000 50 Climbing Washington Center
Fri 08:37:20 PM 35.4475 -79.5592 58° Northeast 219 252 19,000  Level Washington Center
Fri 08:38:21 PM 35.4853 -79.4897 56° Northeast 229 264 19,000  Level Washington Center
Fri 08:39:22 PM 35.5272 -79.4228 52° Northeast 235 270 19,000  Level Washington Center
Fri 08:40:20 PM 35.5650 -79.3506 57° Northeast 235 270 19,000  Level Washington Center
Fri 08:41:20 PM 35.6047 -79.2808 55° Northeast 235 270 19,000  Level Washington Center
Fri 08:42:21 PM 35.6444 -79.2086 56° Northeast 240 276 19,000  Level Washington Center
Fri 08:43:21 PM 35.6842 -79.1364 56° Northeast 245 282 19,000  Level Washington Center
Fri 08:44:20 PM 35.7239 -79.0639 56° Northeast 245 282 19,000  Level Washington Center
Fri 08:45:20 PM 35.7633 -78.9939 55° Northeast 245 282 19,000  Level Washington Center
Fri 08:46:21 PM 35.8031 -78.9214 56° Northeast 245 282 19,000  Level Washington Center
Fri 08:47:22 PM 35.8406 -78.8511 57° Northeast 245 282 19,000  Level Washington Center
Fri 08:48:22 PM 35.8800 -78.7786 56° Northeast 245 282 19,000  Level Washington Center
Fri 08:49:22 PM 35.9236 -78.7111 51° Northeast 245 282 19,000  Level Washington Center
Fri 08:50:20 PM 35.9669 -78.6458 51° Northeast 245 282 19,000  Level Washington Center
Fri 08:51:20 PM 36.0103 -78.5783 52° Northeast 245 282 19,000  Level Washington Center
Fri 08:52:21 PM 36.0494 -78.5106 54° Northeast 245 282 19,000  Level Washington Center
Fri 08:53:22 PM 36.0950 -78.4428 50° Northeast 245 282 19,000  Level Washington Center
Fri 08:54:20 PM 36.1383 -78.3722 53° Northeast 245 282 19,000  Level Washington Center
Fri 08:55:21 PM 36.1817 -78.3042 52° Northeast 245 282 19,000  Level Washington Center
Fri 08:56:22 PM 36.2250 -78.2364 52° Northeast 245 282 19,000  Level Washington Center
Fri 08:57:22 PM 36.2681 -78.1681 52° Northeast 245 282 19,000  Level Washington Center
Fri 08:58:21 PM 36.3094 -78.0975 54° Northeast 245 282 19,000  Level Washington Center
Fri 08:59:22 PM 36.3525 -78.0317 51° Northeast 245 282 19,000  Level Washington Center
Fri 09:00:22 PM 36.3933 -77.9633 53° Northeast 245 282 19,000  Level Washington Center
Fri 09:01:20 PM 36.4364 -77.8975 51° Northeast 245 282 19,000  Level Washington Center
Fri 09:02:22 PM 36.4772 -77.8317 52° Northeast 245 282 19,000  Level Washington Center
Fri 09:03:20 PM 36.5181 -77.7656 52° Northeast 245 282 19,000  Level Washington Center
Fri 09:04:21 PM 36.5569 -77.6994 54° Northeast 245 282 19,000  Level Washington Center
Fri 09:05:21 PM 36.5997 -77.6358 50° Northeast 245 282 19,000  Level Washington Center
Fri 09:06:22 PM 36.6383 -77.5669 55° Northeast 245 282 19,000  Level Washington Center
Fri 09:07:22 PM 36.6833 -77.4981 51° Northeast 245 282 19,000  Level Washington Center
Fri 09:08:20 PM 36.7219 -77.4317 54° Northeast 245 282 19,000  Level Washington Center
Fri 09:09:20 PM 36.7647 -77.3628 52° Northeast 245 282 19,000 -50 Level Washington Center
Fri 09:10:21 PM 36.8053 -77.2961 53° Northeast 245 282 18,900 -298 Descending Washington Center
Fri 09:11:21 PM 36.8481 -77.2244 53° Northeast 245 282 18,400 -495 Descending Washington Center
Fri 09:11:58 PM 36.8822 -77.1733 50° Northeast 271 312 18,100 -508 Descending Washington Center
Fri 09:12:20 PM 36.8950 -77.1475 58° Northeast 251 289 17,900 -358 Descending Washington Center
Fri 09:13:05 PM 36.9333 -77.0911 50° Northeast 276 318 17,700 -300 Descending Washington Center
Fri 09:13:20 PM 36.9417 -77.0731 60° Northeast 262 302 17,600 -500 Descending Washington Center
Fri 09:14:05 PM 36.9758 -77.0139 54° Northeast 277 319 17,200 -400 Descending Washington Center
Fri 09:14:20 PM 36.9886 -76.9961 48° Northeast 273 314 17,200 -203 Level Washington Center
Fri 09:15:04 PM 37.0269 -76.9317 53° Northeast 280 322 17,000 -194 Descending Washington Center
Fri 09:15:22 PM 37.0353 -76.9189 51° Northeast 273 314 17,000  Level Washington Center
Fri 09:16:05 PM 37.0736 -76.8569 52° Northeast 269 310 17,000  Level Washington Center
Fri 09:16:20 PM 37.0781 -76.8442 66° East 268 308 17,000  Level Washington Center
Fri 09:17:05 PM 37.1203 -76.7847 48° Northeast 263 303 17,000  Level Washington Center
Fri 09:17:20 PM 37.1289 -76.7642 62° Northeast 268 308 17,000  Level Washington Center
Fri 09:18:14 PM 37.1689 -76.7075 48° Northeast 264 304 17,000  Level Washington Center
Fri 09:18:20 PM 37.1733 -76.6919 70° East 268 308 17,000  Level Washington Center
Fri 09:19:18 PM 37.2156 -76.6247 52° Northeast 260 299 17,000  Level Washington Center
Fri 09:19:22 PM 37.2156 -76.6194 90° East 260 299 17,000 -689 Level Washington Center
Fri 09:20:19 PM 37.2600 -76.5469 52° Northeast 269 310 16,300 -712 Descending Washington Center
Fri 09:21:20 PM 37.3064 -76.4692 53° Northeast 283 326 15,600 -678 Descending Washington Center
Fri 09:22:14 PM 37.3528 -76.3967 51° Northeast 290 334 15,000 -700 Descending Washington Center
Fri 09:22:20 PM 37.3550 -76.3861 75° East 291 335 14,900 -689 Descending Washington Center
Fri 09:23:15 PM 37.4014 -76.3133 51° Northeast 292 336 14,300 -590 Descending Washington Center
Fri 09:23:21 PM 37.4036 -76.3056 70° East 291 335 14,300 -738 Level Washington Center
Fri 09:24:20 PM 37.4519 -76.2250 53° Northeast 313 360 13,500 -750 Descending Washington Center
Fri 09:25:21 PM 37.5025 -76.1442 52° Northeast 307 353 12,800 -694 Descending Washington Center
Fri 09:26:21 PM 37.5508 -76.0633 53° Northeast 295 339 12,100 -700 Descending Washington Center
Fri 09:27:21 PM 37.5989 -75.9875 51° Northeast 289 333 11,400 -725 Descending Washington Center
Fri 09:27:52 PM 37.6242 -75.9511 49° Northeast 279 321 11,000 -649 Descending Washington Center
Fri 09:27:58 PM 37.6325 -75.9458 27° Northeast 281 323 11,000 -214 Level Washington Center
Fri 09:28:20 PM 37.6617 -75.9356 16° North 273 314 10,900 -984 Descending Washington Center
Fri 09:28:59 PM 37.7056 -75.9067 28° Northeast 279 321 10,000 -1,300 Descending Washington Center
Fri 09:29:20 PM 37.7286 -75.8911 28° Northeast 273 314 9,600 -1,180 Descending Washington Center
Fri 09:30:00 PM 37.7725 -75.8678 23° Northeast 261 300 8,800 -1,082 Descending Washington Center
Fri 09:30:21 PM 37.7850 -75.8544 40° Northeast 261 300 8,500 -1,322 Descending Washington Center
Fri 09:30:59 PM 37.8350 -75.8258 24° Northeast 252 290 7,500 -1,424 Descending Washington Center
Fri 09:31:20 PM 37.8581 -75.8128 24° Northeast 261 300 7,100 -1,220 Descending Washington Center
Fri 09:31:58 PM 37.8956 -75.7892 26° Northeast 257 296 6,300 -1,322 Descending Washington Center
Fri 09:32:19 PM 37.9228 -75.7786 17° North 261 300 5,800 -1,219 Descending Washington Center
Fri 09:33:02 PM 37.9625 -75.7497 30° Northeast 263 303 5,000 -1,279 Descending Washington Center
Fri 09:33:20 PM 37.9853 -75.7339 29° Northeast 255 293 4,500 -1,448 Descending Washington Center
Fri 09:34:00 PM 38.0292 -75.7078 25° Northeast 254 292 3,600 -984 Descending Washington Center
Fri 09:34:21 PM 38.0375 -75.7078 360° North 250 288 3,500 -1,143 Descending Washington Center
Fri 09:35:03 PM 38.0917 -75.6761 25° Northeast 247 284 2,400 -1,300 Descending Washington Center
Fri 09:35:21 PM 38.1064 -75.6683 23° Northeast 245 282 2,200 -700 Descending Washington Center
Fri 09:36:03 PM 38.1586 -75.6472 18° North 244 281 1,700 -300 Descending Washington Center
Fri 09:36:21 PM 38.1731 -75.6314 41° Northeast 240 276 1,900  Climbing Washington Center
Fri 09:37:04 PM 38.2211 -75.6181 12° North 240 276 1,700 -291 Descending Washington Center
Fri 09:38:04 PM 38.2692 -75.5811 31° Northeast 161 185 1,400 -454 Descending Washington Center
Fri 09:39:03 PM 38.2983 -75.5519 38° Northeast 116 133 800 -610 Descending Washington Center

Login

Don't have an account? Register now (free) for customized features, flight alerts, and more!